Time;durP1;ratioP1;P1;durP2;ratioP2;P2;SDS_P1;SDS_P2;PMS_P1;PMS_P2;Temp;Humidity;BMP_temperature;BMP_pressure;BME280_temperature;BME280_humidity;BME280_pressure;Samples;Min_cycle;Max_cycle;Signal;HPM_P1;HPM_P2
2023/12/08 00:01:11;;;;;;;6.28;3.85;;;5.70;41.30;;;;;;5077142;28;20037;-62
2023/12/08 00:03:37;;;;;;;5.00;3.60;;;5.60;39.90;;;;;;5077120;28;20403;-62
2023/12/08 00:06:02;;;;;;;5.85;3.40;;;5.60;46.70;;;;;;5076354;28;20032;-62
2023/12/08 00:08:28;;;;;;;6.20;4.18;;;5.50;64.00;;;;;;5077067;28;20036;-63
2023/12/08 00:10:54;;;;;;;5.55;3.72;;;5.50;73.00;;;;;;5077208;28;20028;-63
2023/12/08 00:13:20;;;;;;;6.55;4.15;;;5.50;67.80;;;;;;5092921;28;20075;-62
2023/12/08 00:15:47;;;;;;;5.40;4.10;;;5.50;69.60;;;;;;5076281;28;20348;-62
2023/12/08 00:18:12;;;;;;;5.07;4.20;;;5.60;72.40;;;;;;5092863;28;20067;-63
2023/12/08 00:20:38;;;;;;;5.53;3.83;;;5.60;83.90;;;;;;5076392;28;20052;-62
2023/12/08 00:23:04;;;;;;;5.13;3.97;;;5.50;75.00;;;;;;5093022;28;20082;-62
2023/12/08 00:25:30;;;;;;;7.32;4.10;;;5.60;83.10;;;;;;5076367;28;20039;-63
2023/12/08 00:27:55;;;;;;;6.38;3.92;;;5.60;91.40;;;;;;5092804;28;20072;-62
2023/12/08 00:30:21;;;;;;;6.00;3.88;;;5.60;91.70;;;;;;5077073;28;20036;-62
2023/12/08 00:32:47;;;;;;;5.57;4.45;;;5.60;91.90;;;;;;5076254;28;20050;-64
2023/12/08 00:35:13;;;;;;;5.05;4.03;;;5.70;74.70;;;;;;5093062;28;20292;-62
2023/12/08 00:37:39;;;;;;;5.07;4.28;;;5.60;91.60;;;;;;5092950;28;20395;-62
2023/12/08 00:40:05;;;;;;;7.65;4.38;;;5.50;94.60;;;;;;5093038;28;20029;-63
2023/12/08 00:42:31;;;;;;;6.63;3.95;;;5.50;99.90;;;;;;5076463;28;20032;-63
2023/12/08 00:44:57;;;;;;;6.25;4.55;;;5.50;99.80;;;;;;5076840;28;20036;-63
2023/12/08 00:47:23;;;;;;;6.03;4.22;;;5.50;99.90;;;;;;5076757;28;20033;-63
2023/12/08 00:49:49;;;;;;;7.72;4.30;;;5.40;99.90;;;;;;5059275;28;20094;-63
2023/12/08 00:52:14;;;;;;;5.70;4.20;;;5.50;99.90;;;;;;5075858;28;20323;-63
2023/12/08 00:54:40;;;;;;;5.57;4.05;;;5.50;99.90;;;;;;5076550;28;20039;-64
2023/12/08 00:57:06;;;;;;;7.10;4.40;;;5.50;99.90;;;;;;5076604;28;20387;-63
2023/12/08 00:59:32;;;;;;;7.00;4.80;;;5.50;99.90;;;;;;5092745;28;20029;-63
2023/12/08 01:01:57;;;;;;;7.25;4.22;;;5.50;99.90;;;;;;5076785;28;20116;-63
2023/12/08 01:04:23;;;;;;;5.88;4.50;;;5.50;99.90;;;;;;5076635;28;20043;-64
2023/12/08 01:06:49;;;;;;;5.00;3.92;;;5.50;99.90;;;;;;5078528;28;20028;-63
2023/12/08 01:09:15;;;;;;;5.45;4.10;;;5.60;99.90;;;;;;5079606;28;20104;-63
2023/12/08 01:11:40;;;;;;;8.65;4.38;;;5.60;99.90;;;;;;5096551;28;20037;-63
2023/12/08 01:14:06;;;;;;;5.45;4.35;;;5.40;99.90;;;;;;5079402;28;20056;-63
2023/12/08 01:16:32;;;;;;;5.72;4.43;;;5.50;99.90;;;;;;5079445;28;20033;-64
2023/12/08 01:18:58;;;;;;;6.68;4.50;;;5.50;99.90;;;;;;5096448;28;20021;-63
2023/12/08 01:21:24;;;;;;;6.05;4.47;;;5.40;99.90;;;;;;5080420;28;20032;-63
2023/12/08 01:23:50;;;;;;;6.68;4.75;;;5.40;99.90;;;;;;5079437;28;20411;-63
2023/12/08 01:26:15;;;;;;;6.53;4.32;;;5.40;99.90;;;;;;5079973;28;20048;-63
2023/12/08 01:28:41;;;;;;;6.38;4.13;;;5.40;99.90;;;;;;5079108;28;20053;-62
2023/12/08 01:31:07;;;;;;;6.18;4.65;;;5.20;99.90;;;;;;5079987;28;20078;-63
2023/12/08 01:33:33;;;;;;;7.80;4.75;;;5.10;99.90;;;;;;5062366;28;20064;-63
2023/12/08 01:35:59;;;;;;;6.22;4.70;;;5.00;99.90;;;;;;5062399;28;20028;-62
2023/12/08 01:38:24;;;;;;;8.80;4.65;;;4.90;99.90;;;;;;5078921;28;20024;-63
2023/12/08 01:40:51;;;;;;;6.20;4.60;;;4.80;99.90;;;;;;5079174;28;20106;-63
2023/12/08 01:43:17;;;;;;;5.28;4.40;;;4.80;99.90;;;;;;5095691;28;20119;-62
2023/12/08 01:45:43;;;;;;;6.28;4.50;;;5.00;99.90;;;;;;5079783;28;20422;-62
2023/12/08 01:48:10;;;;;;;6.32;4.78;;;5.00;99.90;;;;;;5079525;28;20033;-63
2023/12/08 01:50:37;;;;;;;7.05;4.75;;;5.00;99.90;;;;;;5078680;28;20037;-63
2023/12/08 01:53:03;;;;;;;7.60;4.90;;;4.80;99.90;;;;;;5079317;28;20048;-63
2023/12/08 01:55:30;;;;;;;7.07;4.93;;;4.80;99.90;;;;;;5078721;28;20411;-62
2023/12/08 01:57:56;;;;;;;6.85;4.68;;;4.80;99.90;;;;;;5078697;28;20024;-63
2023/12/08 02:00:22;;;;;;;6.75;5.13;;;4.80;99.90;;;;;;5078725;28;20041;-63
2023/12/08 02:02:48;;;;;;;6.53;5.07;;;4.80;99.90;;;;;;5079369;28;20024;-63
2023/12/08 02:05:16;;;;;;;6.18;4.97;;;4.90;99.90;;;;;;5079287;28;20029;-63
2023/12/08 02:07:43;;;;;;;8.45;4.93;;;5.00;99.90;;;;;;5061680;28;20086;-63
2023/12/08 02:10:09;;;;;;;6.50;5.10;;;5.20;99.90;;;;;;5079201;28;20028;-63
2023/12/08 02:12:35;;;;;;;7.72;5.30;;;5.20;99.90;;;;;;5079017;28;20033;-63
2023/12/08 02:15:01;;;;;;;7.53;5.40;;;5.10;99.90;;;;;;5079118;28;20032;-62
2023/12/08 02:17:32;;;;;;;7.20;5.25;;;4.90;99.90;;;;;;5094871;28;20435;-63
2023/12/08 02:19:59;;;;;;;8.60;5.70;;;4.90;99.90;;;;;;5079093;28;20395;-62
2023/12/08 02:22:25;;;;;;;8.05;5.60;;;5.00;99.90;;;;;;5078199;28;20111;-62
2023/12/08 02:24:51;;;;;;;7.68;5.22;;;4.80;99.90;;;;;;5095073;28;20107;-62
2023/12/08 02:27:17;;;;;;;7.32;5.13;;;4.90;99.90;;;;;;5094952;28;20033;-62
2023/12/08 02:29:43;;;;;;;7.70;5.45;;;5.00;99.90;;;;;;5078625;28;20056;-62
2023/12/08 02:32:28;;;;;;;9.90;5.93;;;5.10;99.90;;;;;;5078703;28;20029;-62
2023/12/08 02:34:57;;;;;;;8.00;5.47;;;5.10;99.90;;;;;;5077946;28;20036;-62
2023/12/08 02:37:25;;;;;;;7.97;5.53;;;5.00;99.90;;;;;;5078905;28;20353;-62
2023/12/08 02:39:53;;;;;;;8.50;5.82;;;4.90;99.90;;;;;;5078058;28;20061;-62
2023/12/08 02:42:19;;;;;;;8.73;5.85;;;4.90;99.90;;;;;;5077868;28;20443;-63
2023/12/08 02:44:48;;;;;;;9.68;6.18;;;4.80;99.90;;;;;;5077790;28;20105;-62
2023/12/08 02:47:14;;;;;;;7.50;5.40;;;4.80;99.90;;;;;;5094531;28;20040;-62
2023/12/08 02:49:40;;;;;;;7.47;5.50;;;4.80;99.90;;;;;;5078474;28;20035;-62
2023/12/08 02:52:06;;;;;;;8.02;5.72;;;4.90;99.90;;;;;;5078352;28;20039;-62
2023/12/08 02:54:31;;;;;;;9.25;6.05;;;5.10;99.90;;;;;;5078370;28;20047;-62
2023/12/08 02:56:57;;;;;;;9.77;6.03;;;5.20;99.90;;;;;;5077551;28;20029;-63
2023/12/08 02:59:23;;;;;;;8.65;6.10;;;5.40;99.90;;;;;;5077824;28;20174;-62
2023/12/08 03:01:49;;;;;;;10.07;6.40;;;5.40;99.90;;;;;;5060763;28;20400;-63
2023/12/08 03:04:14;;;;;;;10.55;5.82;;;5.10;99.90;;;;;;5077503;28;20039;-63
2023/12/08 03:06:40;;;;;;;9.15;6.45;;;5.10;99.90;;;;;;5094313;28;20043;-63
2023/12/08 03:09:06;;;;;;;10.20;6.20;;;5.10;99.90;;;;;;5077979;28;20358;-63
2023/12/08 03:11:32;;;;;;;9.60;6.30;;;5.10;99.90;;;;;;5094214;28;20036;-63
2023/12/08 03:13:58;;;;;;;8.88;6.60;;;5.20;99.90;;;;;;5077866;28;20044;-62
2023/12/08 03:16:23;;;;;;;9.27;6.90;;;5.10;99.90;;;;;;5077910;28;20316;-62
2023/12/08 03:18:49;;;;;;;8.57;6.53;;;5.00;99.90;;;;;;5077115;28;20032;-62
2023/12/08 03:21:25;;;;;;;8.15;6.03;;;5.00;99.90;;;;;;5093937;28;20115;-62
2023/12/08 03:23:51;;;;;;;11.95;6.60;;;4.90;99.90;;;;;;5077052;28;20052;-62
2023/12/08 03:26:18;;;;;;;9.30;6.15;;;4.90;99.90;;;;;;5093899;28;20090;-62
2023/12/08 03:28:44;;;;;;;11.23;6.72;;;4.90;99.90;;;;;;5093057;28;20328;-62
2023/12/08 03:31:24;;;;;;;8.25;6.65;;;4.90;99.90;;;;;;5093748;28;20040;-62
2023/12/08 03:33:50;;;;;;;11.05;7.10;;;5.00;99.90;;;;;;5077510;28;20024;-62
2023/12/08 03:36:16;;;;;;;11.63;6.88;;;4.90;99.90;;;;;;5077470;28;20029;-62
2023/12/08 03:38:42;;;;;;;11.35;7.63;;;4.90;99.90;;;;;;5077428;28;20035;-62
2023/12/08 03:41:09;;;;;;;10.73;7.05;;;4.90;99.90;;;;;;5077411;28;20311;-63
2023/12/08 03:43:35;;;;;;;9.88;7.30;;;5.00;99.90;;;;;;5076624;28;20391;-63
2023/12/08 03:46:01;;;;;;;11.27;7.50;;;5.00;99.90;;;;;;5076669;28;20032;-62
2023/12/08 03:48:27;;;;;;;11.45;7.55;;;4.90;99.90;;;;;;5076842;28;20097;-63
2023/12/08 03:50:53;;;;;;;15.70;8.68;;;5.00;99.90;;;;;;5059905;28;20048;-62
2023/12/08 03:53:18;;;;;;;12.25;7.85;;;5.10;99.90;;;;;;5076406;28;20129;-62
2023/12/08 03:55:44;;;;;;;10.80;8.05;;;5.20;99.90;;;;;;5076474;28;20163;-62
2023/12/08 03:58:10;;;;;;;15.23;8.35;;;5.00;99.90;;;;;;5076380;28;20032;-62
2023/12/08 04:00:36;;;;;;;11.80;7.97;;;4.90;99.90;;;;;;5093581;28;20116;-62
2023/12/08 04:03:01;;;;;;;13.13;8.30;;;4.80;99.90;;;;;;5076252;28;20044;-63
2023/12/08 04:05:27;;;;;;;12.63;8.48;;;4.80;99.90;;;;;;5093447;28;20326;-62
2023/12/08 04:07:53;;;;;;;12.35;8.13;;;4.70;99.90;;;;;;5077042;28;20040;-62
2023/12/08 04:10:19;;;;;;;12.38;8.13;;;4.60;99.90;;;;;;5093174;28;20285;-62
2023/12/08 04:12:44;;;;;;;15.60;8.80;;;4.70;99.90;;;;;;5077020;28;20090;-62
2023/12/08 04:15:10;;;;;;;13.15;8.85;;;5.00;99.90;;;;;;5059545;28;20403;-62
2023/12/08 04:17:36;;;;;;;14.45;8.77;;;5.20;99.90;;;;;;5076292;28;20025;-63
2023/12/08 04:20:02;;;;;;;14.20;9.35;;;5.30;99.90;;;;;;5076892;28;20296;-62
2023/12/08 04:22:28;;;;;;;14.27;8.68;;;5.20;99.90;;;;;;5076888;28;20040;-62
2023/12/08 04:24:54;;;;;;;13.27;9.02;;;5.10;99.90;;;;;;5076083;28;20123;-63
2023/12/08 04:27:19;;;;;;;17.33;8.80;;;5.10;99.90;;;;;;5076881;28;20024;-62
2023/12/08 04:29:45;;;;;;;17.33;8.98;;;5.20;99.90;;;;;;5092808;28;20053;-62
2023/12/08 04:32:11;;;;;;;14.05;9.10;;;5.20;99.90;;;;;;5076844;28;20032;-62
2023/12/08 04:34:37;;;;;;;13.68;9.00;;;5.00;99.90;;;;;;5076224;28;20045;-62
2023/12/08 04:37:04;;;;;;;11.95;8.80;;;5.00;99.90;;;;;;5092874;28;20043;-62
2023/12/08 04:39:30;;;;;;;17.02;8.77;;;4.90;99.90;;;;;;5076205;28;20020;-62
2023/12/08 04:41:56;;;;;;;15.82;9.60;;;5.10;99.90;;;;;;5096164;28;20132;-62
2023/12/08 04:44:21;;;;;;;14.55;9.35;;;5.20;99.90;;;;;;5080079;28;20335;-63
2023/12/08 04:46:47;;;;;;;15.90;9.68;;;5.10;99.90;;;;;;5096926;28;20347;-62
2023/12/08 04:49:13;;;;;;;14.10;9.00;;;5.10;99.90;;;;;;5080715;28;20040;-61
2023/12/08 04:51:42;;;;;;;16.00;9.48;;;5.10;99.90;;;;;;5063313;28;20119;-63
2023/12/08 04:54:08;;;;;;;16.60;10.13;;;5.10;99.90;;;;;;5079945;28;20081;-62
2023/12/08 04:56:34;;;;;;;17.88;9.57;;;5.10;99.90;;;;;;5096939;28;20033;-61
2023/12/08 04:59:00;;;;;;;16.77;9.77;;;5.10;99.90;;;;;;5096817;28;20031;-62
2023/12/08 05:01:25;;;;;;;16.75;10.38;;;5.20;99.90;;;;;;5079770;28;20029;-62
2023/12/08 05:03:52;;;;;;;15.65;9.95;;;5.20;99.90;;;;;;5063041;28;20115;-62
2023/12/08 05:06:20;;;;;;;15.18;9.57;;;5.30;99.90;;;;;;5096504;28;20306;-62
2023/12/08 05:08:46;;;;;;;18.40;10.48;;;5.10;99.90;;;;;;5080256;28;20028;-61
2023/12/08 05:11:12;;;;;;;15.43;10.10;;;5.20;99.90;;;;;;5096492;28;20028;-62
2023/12/08 05:13:37;;;;;;;20.13;10.07;;;5.20;99.90;;;;;;5096372;28;20036;-62
2023/12/08 05:16:03;;;;;;;20.30;10.68;;;5.20;99.90;;;;;;5079475;28;20026;-65
2023/12/08 05:18:29;;;;;;;20.60;11.15;;;5.10;99.90;;;;;;5080440;28;20295;-62
2023/12/08 05:20:55;;;;;;;18.75;11.02;;;5.00;99.90;;;;;;5096346;28;20024;-61
2023/12/08 05:23:21;;;;;;;22.58;11.30;;;5.00;99.90;;;;;;5079345;28;20358;-62
2023/12/08 05:25:47;;;;;;;17.85;10.82;;;4.90;99.90;;;;;;5079301;28;20047;-63
2023/12/08 05:28:12;;;;;;;21.00;11.15;;;5.00;99.90;;;;;;5079035;28;20044;-61
2023/12/08 05:30:38;;;;;;;19.98;11.63;;;5.00;99.90;;;;;;5096386;28;20443;-62
2023/12/08 05:33:04;;;;;;;19.42;11.25;;;5.10;99.90;;;;;;5079715;28;20106;-62
2023/12/08 05:35:30;;;;;;;23.30;11.63;;;5.10;99.90;;;;;;5079032;28;20037;-62
2023/12/08 05:37:55;;;;;;;23.05;11.68;;;5.10;99.90;;;;;;5095891;28;20403;-62
2023/12/08 05:40:21;;;;;;;23.15;11.38;;;5.10;99.90;;;;;;5096491;28;20039;-62
2023/12/08 05:42:47;;;;;;;19.42;10.80;;;5.20;99.90;;;;;;5078825;28;20033;-62
2023/12/08 05:45:13;;;;;;;22.70;12.70;;;5.20;99.90;;;;;;5095859;28;20021;-62
2023/12/08 05:47:38;;;;;;;24.00;11.70;;;5.30;99.90;;;;;;5079578;28;20033;-62
2023/12/08 05:50:05;;;;;;;22.13;11.43;;;5.40;99.90;;;;;;5095765;28;20399;-62
2023/12/08 05:52:30;;;;;;;24.55;11.57;;;5.40;99.90;;;;;;5078318;28;20029;-61
2023/12/08 05:54:56;;;;;;;22.48;12.02;;;5.30;99.90;;;;;;5079400;28;20112;-62
2023/12/08 05:57:22;;;;;;;25.00;12.32;;;5.30;99.90;;;;;;5079624;28;20043;-62
2023/12/08 05:59:48;;;;;;;24.65;12.25;;;5.30;99.90;;;;;;5078614;28;20032;-62
2023/12/08 06:02:14;;;;;;;19.02;12.13;;;5.30;99.90;;;;;;5095321;28;20217;-63
2023/12/08 06:04:39;;;;;;;27.70;13.52;;;5.40;99.90;;;;;;5078541;28;20059;-62
2023/12/08 06:07:05;;;;;;;34.42;13.07;;;5.40;99.90;;;;;;5079014;28;20102;-62
2023/12/08 06:09:31;;;;;;;29.38;14.07;;;5.40;99.90;;;;;;5079189;28;20029;-62
2023/12/08 06:11:57;;;;;;;28.88;13.93;;;5.50;99.90;;;;;;5095134;28;20040;-61
2023/12/08 06:14:23;;;;;;;32.00;13.82;;;5.50;99.90;;;;;;5078843;28;20089;-62
2023/12/08 06:16:48;;;;;;;34.97;14.75;;;5.50;99.90;;;;;;5079049;28;20094;-62
2023/12/08 06:19:14;;;;;;;38.05;14.98;;;5.50;99.90;;;;;;5078950;28;20040;-62
2023/12/08 06:21:40;;;;;;;42.67;14.85;;;5.60;99.90;;;;;;5078269;28;20388;-62
2023/12/08 06:24:06;;;;;;;32.35;15.25;;;5.60;99.90;;;;;;5078917;28;20059;-62
2023/12/08 06:26:32;;;;;;;40.28;15.07;;;5.70;99.90;;;;;;5078395;28;20032;-62
2023/12/08 06:28:58;;;;;;;30.60;14.55;;;5.70;99.90;;;;;;5078726;28;20427;-64
2023/12/08 06:31:23;;;;;;;39.15;14.98;;;5.80;99.90;;;;;;5078062;28;20056;-62
2023/12/08 06:33:49;;;;;;;33.47;15.07;;;5.80;99.90;;;;;;5077696;28;20040;-62
2023/12/08 06:36:15;;;;;;;40.47;15.23;;;5.80;99.90;;;;;;5077768;28;20283;-62
2023/12/08 06:38:41;;;;;;;33.53;14.45;;;5.90;99.90;;;;;;5078683;28;20086;-63
2023/12/08 06:41:07;;;;;;;37.38;15.15;;;5.90;99.90;;;;;;5078624;28;20299;-62
2023/12/08 06:43:33;;;;;;;35.72;14.77;;;6.00;99.90;;;;;;5094811;28;20035;-63
2023/12/08 06:46:01;;;;;;;34.90;15.93;;;6.10;99.90;;;;;;5077811;28;20036;-62
2023/12/08 06:48:27;;;;;;;41.72;15.68;;;6.10;99.90;;;;;;5078434;28;20039;-62
2023/12/08 06:50:53;;;;;;;42.20;15.73;;;6.00;99.90;;;;;;5077772;28;20028;-63
2023/12/08 06:53:18;;;;;;;41.40;16.25;;;6.00;99.90;;;;;;5078211;28;20104;-62
2023/12/08 06:55:44;;;;;;;44.03;16.40;;;5.90;99.90;;;;;;5077533;28;20154;-62
2023/12/08 06:58:10;;;;;;;44.33;16.33;;;5.90;99.90;;;;;;5077256;28;20082;-62
2023/12/08 07:00:36;;;;;;;41.03;15.07;;;6.00;99.90;;;;;;5078102;28;20032;-62
2023/12/08 07:03:02;;;;;;;47.50;16.58;;;6.00;99.90;;;;;;5076368;28;20364;-63
2023/12/08 07:05:28;;;;;;;46.25;16.77;;;6.00;99.90;;;;;;5077437;28;20063;-62
2023/12/08 07:07:55;;;;;;;50.85;16.55;;;6.20;99.90;;;;;;5078072;28;20034;-62
2023/12/08 07:10:20;;;;;;;38.40;16.45;;;6.20;99.90;;;;;;5060628;28;20028;-63
2023/12/08 07:12:46;;;;;;;41.20;16.58;;;6.30;99.90;;;;;;5077259;28;20043;-62
2023/12/08 07:15:12;;;;;;;44.55;16.92;;;6.20;99.90;;;;;;5077191;28;20060;-62
2023/12/08 07:17:38;;;;;;;38.15;16.02;;;6.20;99.90;;;;;;5077313;28;20292;-62
2023/12/08 07:20:06;;;;;;;44.25;17.30;;;6.20;99.90;;;;;;5077784;28;20418;-62
2023/12/08 07:22:32;;;;;;;44.25;16.63;;;6.20;99.90;;;;;;5077705;28;20032;-62
2023/12/08 07:24:59;;;;;;;48.55;16.73;;;6.40;99.90;;;;;;5093786;28;20070;-62
2023/12/08 07:27:25;;;;;;;45.90;17.20;;;6.30;99.90;;;;;;5077048;28;20088;-62
2023/12/08 07:29:50;;;;;;;47.83;16.35;;;6.30;99.90;;;;;;5077423;28;20143;-62
2023/12/08 07:32:16;;;;;;;35.45;14.85;;;6.20;99.90;;;;;;5093627;28;20447;-62
2023/12/08 07:34:42;;;;;;;45.33;16.90;;;6.50;99.90;;;;;;5077589;28;20025;-63
2023/12/08 07:37:08;;;;;;;43.75;17.73;;;6.50;99.90;;;;;;5077512;28;20029;-62
2023/12/08 07:39:33;;;;;;;46.88;16.67;;;6.60;99.90;;;;;;5076852;28;20036;-62
2023/12/08 07:41:59;;;;;;;47.13;16.73;;;6.60;99.90;;;;;;5077410;28;20025;-63
2023/12/08 07:44:25;;;;;;;33.17;15.25;;;6.60;99.90;;;;;;5076481;28;20028;-62
2023/12/08 07:46:51;;;;;;;49.42;16.25;;;6.70;99.90;;;;;;5076608;28;20075;-62
2023/12/08 07:49:16;;;;;;;42.70;16.52;;;6.70;99.90;;;;;;5077143;28;20028;-62
2023/12/08 07:51:42;;;;;;;46.05;16.73;;;6.70;99.90;;;;;;5077310;28;20400;-62
2023/12/08 07:54:08;;;;;;;41.97;16.17;;;6.60;99.90;;;;;;5077051;28;20052;-62
2023/12/08 07:56:34;;;;;;;48.33;17.02;;;6.60;99.90;;;;;;5093365;28;20040;-62
2023/12/08 07:59:00;;;;;;;47.75;16.45;;;6.50;99.90;;;;;;5093366;28;20435;-62
2023/12/08 08:01:26;;;;;;;49.05;17.40;;;6.50;99.90;;;;;;5093423;28;20289;-62
2023/12/08 08:03:51;;;;;;;45.30;16.17;;;6.50;99.90;;;;;;5093081;28;20131;-62
2023/12/08 08:06:17;;;;;;;42.28;16.55;;;6.50;99.90;;;;;;5076958;28;20035;-63
2023/12/08 08:08:43;;;;;;;46.63;16.73;;;6.50;99.90;;;;;;5059718;28;20039;-62
2023/12/08 08:11:09;;;;;;;46.85;17.25;;;6.60;99.90;;;;;;5076956;28;20093;-62
2023/12/08 08:13:35;;;;;;;52.75;18.20;;;6.60;99.90;;;;;;5093009;28;20422;-63
2023/12/08 08:16:01;;;;;;;45.00;15.98;;;6.60;99.90;;;;;;5075851;28;20351;-62
2023/12/08 08:18:30;;;;;;;51.00;16.98;;;6.50;99.90;;;;;;5076917;28;20028;-62
2023/12/08 08:20:56;;;;;;;48.35;17.30;;;6.60;99.90;;;;;;5076173;28;20415;-62
2023/12/08 08:23:21;;;;;;;61.25;17.70;;;6.60;99.90;;;;;;5076106;28;20041;-62
2023/12/08 08:25:47;;;;;;;55.83;19.27;;;6.60;99.90;;;;;;5076830;28;20032;-62
2023/12/08 08:28:13;;;;;;;59.85;18.67;;;6.60;99.90;;;;;;5075694;28;20471;-62
2023/12/08 08:30:43;;;;;;;55.92;18.48;;;6.70;99.90;;;;;;5059428;28;20028;-62
2023/12/08 08:33:09;;;;;;;50.78;17.63;;;6.70;99.90;;;;;;5076759;28;20024;-63
2023/12/08 08:35:34;;;;;;;54.03;18.42;;;6.80;99.90;;;;;;5076226;28;20039;-63
2023/12/08 08:38:00;;;;;;;50.70;17.05;;;6.80;99.90;;;;;;5076817;28;20079;-63
2023/12/08 08:40:26;;;;;;;46.90;16.65;;;7.00;99.90;;;;;;5059235;28;20033;-63
2023/12/08 08:42:52;;;;;;;51.22;16.40;;;7.00;99.90;;;;;;5076867;28;20055;-64
2023/12/08 08:45:19;;;;;;;57.53;18.80;;;7.10;99.90;;;;;;5076655;28;20051;-63
2023/12/08 08:47:45;;;;;;;50.30;17.75;;;7.30;99.90;;;;;;5076545;28;20048;-63
2023/12/08 08:50:11;;;;;;;51.60;17.55;;;7.30;99.90;;;;;;5092754;28;20082;-63
2023/12/08 08:52:37;;;;;;;50.15;17.60;;;7.30;99.90;;;;;;5075770;28;20029;-64
2023/12/08 08:55:04;;;;;;;55.28;17.83;;;7.20;99.90;;;;;;5076502;28;20033;-63
2023/12/08 08:57:31;;;;;;;54.70;18.05;;;7.20;99.90;;;;;;5076855;28;20028;-63
2023/12/08 08:59:57;;;;;;;57.63;19.25;;;7.20;99.90;;;;;;5075831;28;20024;-63
2023/12/08 09:02:22;;;;;;;48.88;17.35;;;7.30;99.90;;;;;;5076799;28;20029;-62
2023/12/08 09:04:49;;;;;;;55.45;18.05;;;7.30;99.90;;;;;;5076557;28;20036;-63
2023/12/08 09:07:14;;;;;;;50.88;17.00;;;7.30;99.90;;;;;;5076798;28;20465;-64
2023/12/08 09:09:41;;;;;;;56.92;17.73;;;7.40;99.90;;;;;;5076431;28;20033;-63
2023/12/08 09:12:07;;;;;;;67.38;18.98;;;7.50;99.90;;;;;;5076367;28;20117;-62
2023/12/08 09:14:33;;;;;;;49.03;16.80;;;7.50;99.90;;;;;;5076546;28;20075;-62
2023/12/08 09:17:04;;;;;;;51.15;16.63;;;7.40;99.90;;;;;;5075597;28;20451;-62
2023/12/08 09:19:31;;;;;;;53.65;17.75;;;7.40;99.90;;;;;;5075618;28;20048;-62
2023/12/08 09:21:57;;;;;;;49.40;16.88;;;7.40;99.90;;;;;;5076337;28;20162;-63
2023/12/08 09:24:25;;;;;;;49.72;16.65;;;7.50;99.90;;;;;;5076493;28;20112;-63
2023/12/08 09:26:52;;;;;;;46.08;16.27;;;7.60;99.90;;;;;;5093322;28;20040;-63
2023/12/08 09:29:18;;;;;;;53.67;17.10;;;7.60;99.90;;;;;;5079842;28;20053;-61
2023/12/08 09:31:44;;;;;;;55.05;16.58;;;7.60;99.90;;;;;;5079857;28;20043;-63
2023/12/08 09:34:10;;;;;;;48.42;16.05;;;7.60;99.90;;;;;;5079523;28;20036;-63
2023/12/08 09:36:36;;;;;;;51.28;16.73;;;7.60;99.90;;;;;;5078716;28;20028;-63
2023/12/08 09:39:04;;;;;;;40.45;15.73;;;7.70;99.90;;;;;;5078747;28;20086;-63
2023/12/08 09:41:33;;;;;;;49.80;16.92;;;7.80;99.90;;;;;;5095483;28;20043;-63
2023/12/08 09:44:12;;;;;;;48.30;15.48;;;7.90;99.90;;;;;;5079443;28;20040;-63
2023/12/08 09:46:45;;;;;;;47.40;15.70;;;7.90;99.90;;;;;;5095695;28;20112;-66
2023/12/08 09:49:28;;;;;;;42.95;15.73;;;7.90;99.90;;;;;;5079441;28;20036;-62
2023/12/08 09:51:55;;;;;;;52.22;15.95;;;7.90;99.90;;;;;;5079809;28;20379;-63
2023/12/08 09:54:22;;;;;;;49.03;16.20;;;8.00;99.90;;;;;;5078410;28;20024;-63
2023/12/08 09:56:54;;;;;;;42.55;14.68;;;7.90;99.90;;;;;;5078479;28;20082;-63
2023/12/08 09:59:25;;;;;;;41.17;15.02;;;7.90;99.90;;;;;;5078592;28;20044;-63
2023/12/08 10:01:51;;;;;;;47.42;15.65;;;7.90;99.90;;;;;;5079401;28;20395;-62
2023/12/08 10:04:17;;;;;;;44.25;15.52;;;8.00;99.90;;;;;;5079112;28;20047;-63
2023/12/08 10:06:44;;;;;;;40.78;14.82;;;8.00;99.90;;;;;;5061851;28;20394;-63
2023/12/08 10:09:14;;;;;;;42.40;14.63;;;8.20;99.90;;;;;;5078604;28;20038;-62
2023/12/08 10:11:40;;;;;;;52.50;15.75;;;8.20;99.90;;;;;;5079427;28;20277;-62
2023/12/08 10:14:07;;;;;;;42.72;14.75;;;8.10;99.90;;;;;;5078238;28;20024;-63
2023/12/08 10:16:33;;;;;;;45.80;13.98;;;8.20;99.90;;;;;;5079132;28;20077;-61
2023/12/08 10:19:06;;;;;;;41.13;13.55;;;8.20;99.90;;;;;;5079154;28;20029;-61
2023/12/08 10:21:32;;;;;;;43.25;13.48;;;8.20;99.90;;;;;;5078357;28;20024;-62
2023/12/08 10:24:00;;;;;;;37.60;13.20;;;8.30;99.90;;;;;;5078934;28;20028;-63
2023/12/08 10:26:27;;;;;;;36.35;13.38;;;8.40;99.90;;;;;;5078998;28;20079;-63
2023/12/08 10:28:57;;;;;;;32.97;12.02;;;8.50;99.90;;;;;;5061627;28;20049;-64
2023/12/08 10:31:23;;;;;;;42.13;13.43;;;8.50;99.90;;;;;;5078857;28;20032;-63
2023/12/08 10:33:49;;;;;;;32.05;12.18;;;8.60;99.90;;;;;;5095378;28;20094;-63
2023/12/08 10:36:15;;;;;;;35.67;12.45;;;8.70;99.90;;;;;;5078157;28;20111;-62
2023/12/08 10:38:42;;;;;;;33.83;12.30;;;8.60;99.90;;;;;;5095058;28;20028;-62
2023/12/08 10:41:11;;;;;;;34.55;12.65;;;8.50;99.90;;;;;;5078647;28;20017;-62
2023/12/08 10:43:39;;;;;;;39.70;11.95;;;8.40;99.90;;;;;;5078620;28;20032;-61
2023/12/08 10:46:06;;;;;;;34.42;12.50;;;8.40;99.90;;;;;;5078503;28;20032;-61
2023/12/08 10:48:34;;;;;;;36.90;11.55;;;8.40;99.90;;;;;;5078469;28;20052;-62
2023/12/08 10:51:01;;;;;;;35.75;12.48;;;8.30;99.90;;;;;;5094416;28;20348;-62
2023/12/08 10:53:27;;;;;;;32.83;11.35;;;8.30;99.90;;;;;;5078298;28;20024;-62
2023/12/08 10:56:03;;;;;;;30.27;11.55;;;8.40;99.90;;;;;;5077560;28;20040;-62
2023/12/08 10:58:32;;;;;;;33.65;11.63;;;8.50;99.90;;;;;;5077474;28;20017;-61
2023/12/08 11:01:00;;;;;;;34.08;12.20;;;8.40;99.90;;;;;;5078264;28;20020;-62
2023/12/08 11:03:34;;;;;;;34.42;11.10;;;8.60;99.90;;;;;;5094200;28;20028;-62
2023/12/08 11:06:08;;;;;;;25.10;10.65;;;8.60;99.90;;;;;;5078158;28;20037;-62
2023/12/08 11:08:35;;;;;;;29.13;10.50;;;8.70;99.90;;;;;;5078317;28;20119;-62
2023/12/08 11:11:06;;;;;;;37.67;16.95;;;8.70;99.90;;;;;;5078152;28;20036;-62
2023/12/08 11:13:39;;;;;;;33.90;11.82;;;8.80;99.90;;;;;;5077787;28;20033;-63
2023/12/08 11:16:27;;;;;;;34.75;12.18;;;8.90;99.90;;;;;;5077167;28;20065;-62
2023/12/08 11:18:55;;;;;;;29.48;11.30;;;8.90;99.90;;;;;;5077042;28;20047;-62
2023/12/08 11:21:22;;;;;;;29.45;11.20;;;8.80;99.90;;;;;;5077787;28;20044;-62
2023/12/08 11:23:49;;;;;;;25.52;10.15;;;8.80;99.90;;;;;;5077808;28;20024;-62
2023/12/08 11:26:46;;;;;;;27.00;10.60;;;8.70;99.90;;;;;;5077594;28;20048;-62
2023/12/08 11:29:30;;;;;;;27.27;11.05;;;8.70;99.90;;;;;;5076830;28;20319;-62
2023/12/08 11:32:14;;;;;;;30.02;10.23;;;8.60;99.90;;;;;;5077654;28;20042;-62
2023/12/08 11:35:04;;;;;;;31.40;10.50;;;8.60;99.90;;;;;;5077595;28;20029;-62
2023/12/08 11:37:35;;;;;;;32.45;10.35;;;8.60;99.90;;;;;;5077593;28;20041;-61
2023/12/08 11:40:11;;;;;;;29.45;10.13;;;8.70;99.90;;;;;;5076963;28;20407;-62
2023/12/08 11:42:39;;;;;;;32.60;10.23;;;8.60;99.90;;;;;;5077877;28;20052;-61
2023/12/08 11:45:10;;;;;;;28.48;10.75;;;8.60;99.90;;;;;;5093228;28;20087;-61
2023/12/08 11:47:35;;;;;;;32.08;10.40;;;8.60;99.90;;;;;;5077229;28;20040;-62
2023/12/08 11:50:05;;;;;;;28.38;10.63;;;8.60;99.90;;;;;;5076712;28;20040;-62
2023/12/08 11:52:33;;;;;;;27.40;10.75;;;8.60;99.90;;;;;;5092803;28;20032;-60
2023/12/08 11:55:22;;;;;;;30.25;10.98;;;8.60;99.90;;;;;;5077145;28;20303;-65
2023/12/08 11:58:02;;;;;;;28.90;10.68;;;8.60;99.90;;;;;;5077173;28;20033;-62
2023/12/08 12:00:30;;;;;;;30.05;10.27;;;8.60;99.90;;;;;;5077118;28;20028;-61
2023/12/08 12:02:58;;;;;;;31.88;11.25;;;8.50;99.90;;;;;;5077028;28;20302;-62
2023/12/08 12:05:26;;;;;;;24.67;9.60;;;8.50;99.90;;;;;;5077059;28;20028;-62
2023/12/08 12:07:54;;;;;;;25.10;9.88;;;8.70;99.90;;;;;;5077020;28;20374;-62
2023/12/08 12:10:28;;;;;;;28.30;10.48;;;8.80;99.90;;;;;;5076244;28;20025;-62
2023/12/08 12:12:56;;;;;;;27.77;9.80;;;8.70;99.90;;;;;;5076085;28;20058;-62
2023/12/08 12:15:25;;;;;;;26.35;10.88;;;8.70;99.90;;;;;;5076900;28;20031;-62
2023/12/08 12:17:51;;;;;;;26.48;10.80;;;8.70;99.90;;;;;;5092848;28;20422;-63
2023/12/08 12:20:18;;;;;;;29.25;10.45;;;8.70;99.90;;;;;;5076052;28;20112;-62
2023/12/08 12:22:44;;;;;;;26.10;10.05;;;8.70;99.90;;;;;;5076114;28;20277;-62
2023/12/08 12:25:11;;;;;;;27.52;10.45;;;8.80;99.90;;;;;;5076068;28;20116;-62
2023/12/08 12:27:47;;;;;;;25.05;10.35;;;8.90;99.90;;;;;;5075954;28;20131;-63
2023/12/08 12:30:13;;;;;;;29.92;10.60;;;8.90;99.90;;;;;;5076771;28;20036;-62
2023/12/08 12:32:40;;;;;;;27.92;10.40;;;9.10;99.90;;;;;;5076794;28;20119;-62
2023/12/08 12:35:07;;;;;;;24.50;9.48;;;9.10;99.90;;;;;;5076623;28;20037;-63
2023/12/08 12:37:34;;;;;;;27.63;10.40;;;9.00;99.90;;;;;;5076681;28;20112;-62
2023/12/08 12:40:00;;;;;;;29.48;10.25;;;9.00;99.90;;;;;;5076653;28;20299;-60
2023/12/08 12:42:26;;;;;;;23.92;9.10;;;9.00;99.90;;;;;;5076630;28;20399;-61